createdAt,value
2023-04-17T00:00:12.517Z,49.88
2023-04-17T00:02:41.864Z,49.45
2023-04-17T00:05:11.197Z,50.97
2023-04-17T00:07:41.374Z,51.45
2023-04-17T00:10:11.156Z,51.17
2023-04-17T00:12:40.775Z,50.60
2023-04-17T00:15:09.928Z,50.33
2023-04-17T00:17:38.068Z,48.58
2023-04-17T00:20:10.523Z,48.60
2023-04-17T00:22:38.873Z,48.35
2023-04-17T00:25:07.757Z,49.05
2023-04-17T00:27:35.980Z,50.10
2023-04-17T00:30:06.452Z,48.90
2023-04-17T00:32:34.880Z,49.78
2023-04-17T00:35:03.634Z,49.15
2023-04-17T00:37:31.925Z,49.10
2023-04-17T00:39:59.987Z,48.58
2023-04-17T00:42:28.094Z,48.67
2023-04-17T00:44:57.416Z,48.97
2023-04-17T00:47:27.208Z,50.60
2023-04-17T00:49:55.584Z,48.97
2023-04-17T00:52:29.205Z,48.42
2023-04-17T00:55:00.916Z,46.53
2023-04-17T00:57:29.381Z,46.95
2023-04-17T00:59:59.008Z,48.17
2023-04-17T01:02:31.827Z,48.22
2023-04-17T01:05:02.809Z,46.38
2023-04-17T01:07:31.668Z,46.63
2023-04-17T01:10:00.679Z,46.92
2023-04-17T01:12:29.481Z,47.17
2023-04-17T01:14:58.924Z,46.30
2023-04-17T01:17:29.004Z,46.00
2023-04-17T01:19:58.200Z,45.75
2023-04-17T01:22:26.543Z,46.53
2023-04-17T01:24:56.207Z,47.17
2023-04-17T01:27:24.860Z,46.60
2023-04-17T01:29:53.154Z,44.58
2023-04-17T01:32:21.368Z,47.27
2023-04-17T01:34:49.453Z,46.47
2023-04-17T01:37:20.767Z,47.50
2023-04-17T01:39:48.951Z,46.53
2023-04-17T01:42:18.777Z,48.90
2023-04-17T01:44:47.174Z,47.65
2023-04-17T01:47:17.477Z,47.95
2023-04-17T01:49:45.897Z,47.17
2023-04-17T01:52:13.975Z,49.67
2023-04-17T01:54:44.383Z,46.70
2023-04-17T01:57:12.615Z,47.33
2023-04-17T01:59:42.451Z,45.63
2023-04-17T02:02:10.892Z,46.33
2023-04-17T02:04:39.245Z,45.08
2023-04-17T02:07:07.537Z,46.03
2023-04-17T02:09:35.616Z,45.92
2023-04-17T02:12:03.702Z,47.00
2023-04-17T02:14:31.975Z,48.22
2023-04-17T02:17:01.607Z,45.75
2023-04-17T02:19:31.616Z,47.08
2023-04-17T02:21:59.788Z,46.95
2023-04-17T02:24:28.210Z,48.47
2023-04-17T02:26:57.663Z,49.28
2023-04-17T02:29:26.020Z,46.28
2023-04-17T02:31:54.253Z,46.60
2023-04-17T02:34:26.283Z,48.75
2023-04-17T02:36:54.330Z,47.85
2023-04-17T02:39:22.451Z,46.83
2023-04-17T02:41:50.513Z,46.45
2023-04-17T02:44:18.629Z,46.08
2023-04-17T02:46:46.866Z,45.60
2023-04-17T02:49:15.005Z,44.72
2023-04-17T02:51:44.867Z,46.08
2023-04-17T02:54:13.208Z,45.83
2023-04-17T02:56:44.461Z,44.70
2023-04-17T02:59:13.908Z,46.38
2023-04-17T03:01:44.974Z,45.75
2023-04-17T03:04:13.271Z,44.90
2023-04-17T03:06:43.602Z,46.75
2023-04-17T03:09:14.792Z,47.90
2023-04-17T03:11:42.890Z,45.25
2023-04-17T03:14:11.281Z,48.15
2023-04-17T03:16:39.271Z,46.35
2023-04-17T03:19:07.384Z,46.75
2023-04-17T03:21:35.764Z,45.17
2023-04-17T03:24:03.975Z,43.38
2023-04-17T03:26:33.603Z,43.37
2023-04-17T03:29:01.689Z,42.25
2023-04-17T03:31:29.878Z,43.17
2023-04-17T03:34:00.718Z,43.13
2023-04-17T03:36:29.114Z,45.20
2023-04-17T03:38:57.901Z,45.30
2023-04-17T03:41:26.189Z,45.95
2023-04-17T03:43:55.932Z,46.38
2023-04-17T03:46:24.490Z,46.38
2023-04-17T03:48:52.715Z,42.40
2023-04-17T03:51:21.125Z,45.50
2023-04-17T03:53:49.308Z,43.47
2023-04-17T03:56:17.532Z,43.33
2023-04-17T03:58:45.865Z,44.45
2023-04-17T04:01:15.729Z,43.45
2023-04-17T04:03:44.138Z,44.15
2023-04-17T04:06:12.739Z,44.83
2023-04-17T04:08:41.465Z,42.53
2023-04-17T04:11:09.584Z,44.28
2023-04-17T04:13:37.758Z,43.72
2023-04-17T04:16:06.835Z,43.38
2023-04-17T04:18:36.480Z,44.03
2023-04-17T04:21:08.684Z,42.92
2023-04-17T04:23:37.831Z,44.53
2023-04-17T04:26:06.062Z,43.15
2023-04-17T04:28:34.171Z,43.63
2023-04-17T04:31:02.782Z,43.33
2023-04-17T04:33:31.545Z,42.53
2023-04-17T04:36:04.394Z,44.17
2023-04-17T04:38:33.035Z,44.63
2023-04-17T04:41:06.288Z,44.60
2023-04-17T04:43:35.674Z,44.30
2023-04-17T04:46:04.342Z,44.35
2023-04-17T04:48:32.537Z,43.80
2023-04-17T04:51:01.222Z,44.70
2023-04-17T04:53:31.669Z,44.22
2023-04-17T04:55:59.850Z,43.63
2023-04-17T04:58:29.523Z,43.83
2023-04-17T05:01:05.030Z,45.30
2023-04-17T05:03:39.913Z,45.40
2023-04-17T05:06:09.647Z,44.53
2023-04-17T05:08:42.652Z,45.13
2023-04-17T05:11:10.848Z,45.60
2023-04-17T05:13:40.951Z,43.10
2023-04-17T05:16:09.172Z,42.97
2023-04-17T05:18:37.522Z,44.45
2023-04-17T05:21:05.817Z,43.22
2023-04-17T05:23:33.987Z,43.42
2023-04-17T05:26:04.065Z,42.25
2023-04-17T05:28:32.234Z,42.45
2023-04-17T05:31:00.601Z,43.97
2023-04-17T05:33:29.192Z,44.30
2023-04-17T05:35:57.364Z,44.13
2023-04-17T05:38:25.637Z,44.28
2023-04-17T05:40:57.013Z,43.83
2023-04-17T05:43:34.480Z,45.72
2023-04-17T05:46:02.660Z,44.55
2023-04-17T05:48:31.197Z,44.60
2023-04-17T05:50:59.740Z,43.28
2023-04-17T05:53:28.302Z,44.15
2023-04-17T05:55:59.030Z,44.92
2023-04-17T05:58:31.382Z,43.55
2023-04-17T06:00:59.761Z,43.88
2023-04-17T06:03:28.308Z,43.80
2023-04-17T06:05:57.227Z,44.25
2023-04-17T06:08:25.511Z,43.92
2023-04-17T06:10:53.730Z,44.08
2023-04-17T06:13:23.541Z,43.08
2023-04-17T06:15:53.201Z,44.28
2023-04-17T06:18:23.016Z,43.85
2023-04-17T06:20:51.127Z,45.58
2023-04-17T06:23:19.261Z,45.08
2023-04-17T06:25:47.323Z,43.47
2023-04-17T06:28:17.916Z,45.17
2023-04-17T06:30:46.138Z,43.65
2023-04-17T06:33:15.761Z,42.88
2023-04-17T06:35:43.866Z,43.25
2023-04-17T06:38:12.145Z,43.35
2023-04-17T06:40:40.536Z,44.40
2023-04-17T06:43:08.898Z,43.00
2023-04-17T06:45:37.088Z,42.10
2023-04-17T06:48:05.807Z,43.05
2023-04-17T06:50:35.996Z,42.28
2023-04-17T06:53:04.129Z,43.08
2023-04-17T06:55:33.394Z,44.15
2023-04-17T06:58:01.369Z,44.38
2023-04-17T07:00:29.632Z,43.03
2023-04-17T07:02:58.108Z,42.83
2023-04-17T07:05:26.602Z,43.38
2023-04-17T07:07:56.621Z,42.55
2023-04-17T07:10:24.833Z,42.90
2023-04-17T07:12:52.878Z,43.20
2023-04-17T07:15:21.332Z,42.92
2023-04-17T07:17:49.619Z,43.85
2023-04-17T07:20:17.693Z,42.72
2023-04-17T07:22:45.758Z,42.65
2023-04-17T07:25:17.427Z,44.00
2023-04-17T07:27:45.615Z,44.70
2023-04-17T07:30:14.174Z,42.95
2023-04-17T07:32:42.502Z,43.20
2023-04-17T07:35:11.022Z,42.42
2023-04-17T07:37:39.146Z,43.47
2023-04-17T07:40:10.648Z,43.95
2023-04-17T07:42:42.315Z,44.28
2023-04-17T07:45:13.488Z,43.92
2023-04-17T07:47:42.851Z,43.00
2023-04-17T07:50:15.199Z,44.35
2023-04-17T07:52:43.787Z,44.47
2023-04-17T07:55:11.917Z,46.55
2023-04-17T07:57:43.037Z,44.35
2023-04-17T08:00:20.123Z,43.30
2023-04-17T08:02:52.714Z,45.25
2023-04-17T08:05:21.206Z,44.35
2023-04-17T08:07:49.404Z,45.67
2023-04-17T08:10:20.043Z,45.53
2023-04-17T08:12:51.926Z,45.67
2023-04-17T08:15:21.109Z,45.25
2023-04-17T08:17:49.635Z,46.35
2023-04-17T08:20:21.309Z,46.45
2023-04-17T08:22:50.250Z,46.55
2023-04-17T08:25:18.709Z,45.97
2023-04-17T08:27:47.263Z,46.40
2023-04-17T08:30:19.258Z,47.00
2023-04-17T08:32:57.900Z,47.78
2023-04-17T08:35:28.540Z,46.88
2023-04-17T08:37:58.912Z,48.95
2023-04-17T08:40:27.492Z,46.55
2023-04-17T08:43:00.670Z,48.47
2023-04-17T08:45:30.775Z,46.88
2023-04-17T08:48:01.791Z,47.85
2023-04-17T08:50:32.645Z,47.90
2023-04-17T08:53:03.053Z,49.03
2023-04-17T08:55:33.423Z,48.30
2023-04-17T08:58:04.500Z,48.60
2023-04-17T09:00:35.933Z,48.70
2023-04-17T09:03:07.805Z,49.33
2023-04-17T09:05:37.692Z,48.03
2023-04-17T09:08:14.418Z,48.75
2023-04-17T09:10:44.135Z,48.15
2023-04-17T09:13:14.887Z,48.30
2023-04-17T09:15:49.270Z,47.88
2023-04-17T09:18:27.700Z,48.65
2023-04-17T09:20:58.531Z,49.38
2023-04-17T09:23:28.400Z,47.85
2023-04-17T09:26:09.989Z,47.55
2023-04-17T09:28:43.866Z,49.10
2023-04-17T09:31:28.510Z,48.13
2023-04-17T09:34:01.589Z,49.65
2023-04-17T09:36:32.032Z,49.58
2023-04-17T09:39:01.451Z,49.55
2023-04-17T09:41:31.843Z,49.28
2023-04-17T09:44:05.743Z,49.83
2023-04-17T09:46:41.418Z,49.92
2023-04-17T09:49:15.175Z,49.75
2023-04-17T09:51:47.086Z,49.95
2023-04-17T09:54:17.168Z,51.80
2023-04-17T09:56:46.397Z,50.83
2023-04-17T09:59:16.222Z,51.15
2023-04-17T10:01:47.729Z,50.17
2023-04-17T10:04:16.513Z,49.88
2023-04-17T10:06:45.209Z,50.80
2023-04-17T10:09:15.145Z,49.85
2023-04-17T10:11:46.944Z,50.90
2023-04-17T10:14:20.710Z,50.95
2023-04-17T10:16:50.654Z,49.92
2023-04-17T10:19:28.736Z,50.03
2023-04-17T10:22:31.362Z,51.05
2023-04-17T10:25:18.794Z,51.38
2023-04-17T10:27:51.913Z,51.92
2023-04-17T10:30:22.568Z,51.05
2023-04-17T10:33:34.044Z,52.20
2023-04-17T10:36:06.205Z,53.20
2023-04-17T10:38:36.977Z,54.13
2023-04-17T10:41:09.266Z,53.05
2023-04-17T10:43:41.964Z,52.97
2023-04-17T10:46:12.370Z,53.95
2023-04-17T10:48:47.962Z,54.60
2023-04-17T10:51:49.818Z,55.30
2023-04-17T10:54:19.914Z,56.13
2023-04-17T10:56:48.575Z,54.83
2023-04-17T10:59:18.949Z,55.45
2023-04-17T11:02:04.350Z,55.90
2023-04-17T11:04:34.103Z,53.70
2023-04-17T11:07:02.661Z,54.38
2023-04-17T11:09:32.114Z,54.97
2023-04-17T11:12:01.441Z,54.90
2023-04-17T11:14:30.519Z,54.78
2023-04-17T11:16:58.751Z,54.15
2023-04-17T11:19:29.308Z,57.70
2023-04-17T11:21:58.909Z,55.90
2023-04-17T11:24:28.626Z,59.80
2023-04-17T11:27:01.020Z,60.72
2023-04-17T11:29:29.652Z,62.03
2023-04-17T11:31:59.291Z,62.83
2023-04-17T11:34:27.870Z,63.35
2023-04-17T11:36:58.330Z,64.95
2023-04-17T11:39:31.066Z,61.60
2023-04-17T11:42:02.487Z,63.13
2023-04-17T11:44:30.811Z,52.97
2023-04-17T11:46:59.932Z,44.20
2023-04-17T11:49:28.933Z,28.75
2023-04-17T11:52:01.797Z,24.60
2023-04-17T11:54:33.055Z,19.35
2023-04-17T11:57:06.531Z,17.17
2023-04-17T11:59:37.756Z,15.07
2023-04-17T12:02:10.472Z,15.35
2023-04-17T12:04:41.669Z,14.70
2023-04-17T12:07:23.142Z,13.90
2023-04-17T12:09:56.862Z,11.98
2023-04-17T12:12:28.805Z,12.45
2023-04-17T12:14:56.833Z,12.55
2023-04-17T12:17:25.092Z,12.13
2023-04-17T12:19:53.199Z,13.02
2023-04-17T12:22:21.590Z,12.15
2023-04-17T12:24:52.766Z,11.63
2023-04-17T12:27:21.699Z,12.18
2023-04-17T12:29:51.342Z,12.13
2023-04-17T12:32:19.606Z,12.63
2023-04-17T12:34:48.100Z,11.93
2023-04-17T12:37:16.943Z,12.43
2023-04-17T12:39:45.215Z,13.20
2023-04-17T12:42:13.394Z,11.50
2023-04-17T12:44:41.813Z,11.40
2023-04-17T12:47:11.757Z,12.43
2023-04-17T12:49:39.961Z,12.68
2023-04-17T12:52:18.220Z,13.05
2023-04-17T12:54:54.279Z,12.18
2023-04-17T12:57:22.963Z,11.50
2023-04-17T12:59:53.738Z,11.30
2023-04-17T13:02:28.715Z,11.20
2023-04-17T13:04:56.969Z,12.43
2023-04-17T13:07:25.224Z,11.77
2023-04-17T13:09:54.661Z,11.48
2023-04-17T13:12:24.965Z,11.55
2023-04-17T13:14:57.996Z,12.10
2023-04-17T13:17:32.358Z,11.18
2023-04-17T13:20:00.757Z,11.80
2023-04-17T13:22:28.818Z,10.48
2023-04-17T13:24:56.969Z,10.35
2023-04-17T13:27:25.491Z,9.88
2023-04-17T13:29:53.743Z,10.70
2023-04-17T13:32:24.699Z,11.05
2023-04-17T13:34:56.762Z,12.30
2023-04-17T13:37:26.607Z,10.20
2023-04-17T13:39:54.803Z,10.93
2023-04-17T13:42:23.979Z,10.55
2023-04-17T13:44:52.048Z,10.70
2023-04-17T13:47:20.339Z,11.63
2023-04-17T13:49:48.478Z,12.73
2023-04-17T13:52:18.091Z,11.48
2023-04-17T13:54:53.643Z,11.75
2023-04-17T13:57:21.867Z,11.65
2023-04-17T13:59:50.057Z,12.88
2023-04-17T14:02:18.372Z,11.75
2023-04-17T14:04:47.882Z,11.85
2023-04-17T14:07:18.396Z,11.77
2023-04-17T14:09:49.833Z,12.20
2023-04-17T14:12:22.959Z,13.18
2023-04-17T14:14:51.201Z,12.98
2023-04-17T14:17:20.100Z,12.48
2023-04-17T14:19:49.484Z,12.00
2023-04-17T14:22:20.560Z,12.55
2023-04-17T14:24:48.779Z,12.50
2023-04-17T14:27:19.015Z,11.45
2023-04-17T14:29:47.484Z,11.43
2023-04-17T14:32:23.232Z,11.48
2023-04-17T14:34:51.553Z,12.15
2023-04-17T14:37:21.169Z,11.50
2023-04-17T14:39:49.163Z,11.48
2023-04-17T14:42:17.258Z,10.52
2023-04-17T14:44:47.141Z,11.38
2023-04-17T14:47:16.602Z,12.05
2023-04-17T14:49:44.854Z,12.10
2023-04-17T14:52:12.982Z,11.63
2023-04-17T14:54:45.942Z,11.48
2023-04-17T14:57:14.457Z,11.40
2023-04-17T14:59:45.688Z,10.65
2023-04-17T15:02:14.184Z,10.73
2023-04-17T15:04:43.043Z,10.60
2023-04-17T15:07:14.076Z,11.40
2023-04-17T15:09:43.766Z,11.57
2023-04-17T15:12:12.157Z,10.60
2023-04-17T15:14:52.370Z,10.93
2023-04-17T15:17:26.561Z,10.13
2023-04-17T15:19:57.838Z,9.88
2023-04-17T15:22:34.405Z,9.75
2023-04-17T15:25:14.722Z,10.27
2023-04-17T15:27:43.899Z,9.63
2023-04-17T15:30:20.564Z,9.27
2023-04-17T15:32:48.847Z,10.40
2023-04-17T15:35:16.953Z,9.45
2023-04-17T15:37:45.258Z,9.93
2023-04-17T15:40:17.581Z,10.00
2023-04-17T15:42:47.987Z,9.65
2023-04-17T15:45:17.298Z,9.60
2023-04-17T15:47:58.766Z,9.50
2023-04-17T15:50:36.119Z,9.88
2023-04-17T15:53:21.711Z,9.32
2023-04-17T15:55:57.591Z,9.32
2023-04-17T15:58:26.002Z,9.85
2023-04-17T16:00:54.569Z,9.52
2023-04-17T16:03:29.137Z,9.93
2023-04-17T16:06:05.790Z,9.57
2023-04-17T16:08:34.148Z,10.65
2023-04-17T16:11:03.767Z,10.18
2023-04-17T16:13:31.916Z,10.73
2023-04-17T16:16:00.298Z,11.45
2023-04-17T16:18:32.384Z,11.32
2023-04-17T16:21:00.719Z,12.00
2023-04-17T16:23:28.904Z,11.48
2023-04-17T16:25:57.581Z,11.55
2023-04-17T16:28:27.515Z,11.40
2023-04-17T16:30:56.280Z,11.73
2023-04-17T16:33:24.526Z,13.02
2023-04-17T16:35:55.611Z,11.90
2023-04-17T16:38:24.177Z,12.43
2023-04-17T16:40:53.632Z,12.57
2023-04-17T16:43:25.889Z,12.38
2023-04-17T16:45:55.668Z,12.18
2023-04-17T16:48:24.192Z,12.85
2023-04-17T16:50:53.848Z,11.93
2023-04-17T16:53:22.226Z,12.43
2023-04-17T16:55:50.685Z,12.05
2023-04-17T16:58:19.109Z,13.20
2023-04-17T17:00:47.423Z,12.05
2023-04-17T17:03:17.393Z,12.40
2023-04-17T17:05:48.141Z,13.23
2023-04-17T17:08:18.922Z,12.68
2023-04-17T17:10:49.533Z,12.85
2023-04-17T17:13:18.060Z,13.32
2023-04-17T17:15:46.480Z,13.50
2023-04-17T17:18:16.157Z,12.77
2023-04-17T17:20:44.331Z,13.13
2023-04-17T17:23:12.813Z,13.30
2023-04-17T17:25:42.616Z,12.57
2023-04-17T17:28:11.143Z,14.25
2023-04-17T17:30:39.394Z,17.23
2023-04-17T17:33:07.769Z,15.65
2023-04-17T17:35:37.317Z,14.57
2023-04-17T17:38:05.716Z,14.63
2023-04-17T17:40:35.684Z,13.38
2023-04-17T17:43:04.211Z,14.02
2023-04-17T17:45:36.830Z,13.07
2023-04-17T17:48:05.396Z,13.65
2023-04-17T17:50:36.011Z,13.90
2023-04-17T17:53:14.236Z,14.50
2023-04-17T17:55:51.619Z,14.52
2023-04-17T17:58:26.216Z,13.65
2023-04-17T18:00:54.557Z,15.52
2023-04-17T18:03:31.007Z,15.50
2023-04-17T18:06:11.163Z,15.68
2023-04-17T18:08:53.463Z,15.60
2023-04-17T18:11:25.994Z,16.27
2023-04-17T18:13:57.256Z,18.67
2023-04-17T18:16:45.645Z,20.30
2023-04-17T18:19:14.342Z,23.80
2023-04-17T18:21:47.702Z,29.65
2023-04-17T18:24:22.122Z,36.78
2023-04-17T18:26:50.696Z,45.90
2023-04-17T18:29:18.779Z,50.30
2023-04-17T18:31:47.303Z,53.38
2023-04-17T18:34:21.293Z,54.05
2023-04-17T18:36:54.627Z,54.10
2023-04-17T18:39:24.446Z,54.92
2023-04-17T18:41:52.701Z,53.97
2023-04-17T18:44:24.615Z,53.65
2023-04-17T18:46:53.037Z,52.88
2023-04-17T18:49:21.475Z,54.38
2023-04-17T18:51:50.281Z,52.38
2023-04-17T18:54:19.566Z,51.67
2023-04-17T18:56:51.813Z,52.13
2023-04-17T18:59:21.420Z,52.15
2023-04-17T19:01:49.624Z,50.13
2023-04-17T19:04:31.860Z,51.90
2023-04-17T19:07:01.549Z,51.92
2023-04-17T19:09:35.396Z,51.13
2023-04-17T19:12:05.388Z,49.60
2023-04-17T19:14:35.177Z,50.92
2023-04-17T19:17:06.780Z,48.72
2023-04-17T19:19:47.548Z,51.45
2023-04-17T19:22:16.150Z,48.63
2023-04-17T19:24:44.891Z,50.78
2023-04-17T19:27:14.746Z,50.95
2023-04-17T19:29:59.011Z,51.50
2023-04-17T19:32:34.610Z,49.28
2023-04-17T19:35:04.544Z,50.85
2023-04-17T19:37:33.473Z,48.80
2023-04-17T19:40:04.299Z,49.63
2023-04-17T19:42:38.863Z,48.78
2023-04-17T19:45:08.161Z,50.15
2023-04-17T19:47:37.416Z,50.17
2023-04-17T19:50:06.601Z,49.60
2023-04-17T19:52:38.594Z,49.28
2023-04-17T19:55:15.506Z,48.45
2023-04-17T19:57:45.829Z,49.58
2023-04-17T20:00:16.560Z,49.03
2023-04-17T20:02:45.006Z,50.28
2023-04-17T20:05:14.397Z,50.28
2023-04-17T20:07:42.860Z,50.30
2023-04-17T20:10:12.525Z,51.13
2023-04-17T20:12:46.891Z,50.70
2023-04-17T20:15:21.690Z,51.78
2023-04-17T20:17:51.251Z,51.65
2023-04-17T20:20:22.725Z,50.30
2023-04-17T20:22:51.428Z,49.58
2023-04-17T20:25:19.986Z,49.50
2023-04-17T20:27:48.138Z,51.80
2023-04-17T20:30:20.115Z,50.97
2023-04-17T20:32:51.154Z,51.05
2023-04-17T20:35:24.507Z,54.05
2023-04-17T20:37:53.192Z,54.78
2023-04-17T20:40:21.470Z,57.05
2023-04-17T20:42:49.856Z,57.58
2023-04-17T20:45:19.617Z,61.47
2023-04-17T20:50:19.013Z,58.78
2023-04-17T20:52:48.420Z,56.83
2023-04-17T20:55:18.333Z,50.55
2023-04-17T20:57:46.726Z,47.88
2023-04-17T21:00:17.438Z,48.05
2023-04-17T21:02:49.649Z,46.55
2023-04-17T21:05:19.393Z,45.97
2023-04-17T21:07:49.504Z,45.67
2023-04-17T21:10:19.976Z,47.08
2023-04-17T21:12:48.231Z,46.53
2023-04-17T21:15:16.494Z,45.80
2023-04-17T21:17:47.772Z,45.38
2023-04-17T21:20:18.428Z,46.08
2023-04-17T21:22:46.585Z,46.17
2023-04-17T21:25:14.709Z,46.60
2023-04-17T21:27:43.908Z,46.67
2023-04-17T21:30:12.579Z,46.15
2023-04-17T21:32:42.314Z,45.58
2023-04-17T21:35:12.181Z,46.08
2023-04-17T21:37:42.559Z,46.78
2023-04-17T21:40:11.650Z,45.63
2023-04-17T21:42:41.194Z,46.15
2023-04-17T21:45:10.268Z,45.78
2023-04-17T21:47:38.532Z,45.72
2023-04-17T21:50:07.673Z,46.47
2023-04-17T21:52:37.081Z,45.35
2023-04-17T21:55:07.713Z,45.42
2023-04-17T21:57:36.083Z,45.30
2023-04-17T22:00:05.679Z,44.50
2023-04-17T22:02:34.009Z,45.38
2023-04-17T22:05:02.419Z,46.35
2023-04-17T22:07:32.648Z,46.40
2023-04-17T22:10:06.678Z,52.53
2023-04-17T22:12:34.769Z,54.92
2023-04-17T22:15:03.004Z,55.10
2023-04-17T22:17:34.184Z,55.63
2023-04-17T22:20:38.656Z,53.80
2023-04-17T22:23:44.363Z,54.88
2023-04-17T22:26:33.163Z,55.05
2023-04-17T22:29:56.572Z,57.13
2023-04-17T22:33:02.307Z,59.42
2023-04-17T22:36:25.793Z,58.75
2023-04-17T22:39:31.661Z,58.95
2023-04-17T22:42:37.801Z,59.45
2023-04-17T22:45:07.337Z,60.70
2023-04-17T22:48:12.631Z,61.92
2023-04-17T22:51:36.019Z,59.33
2023-04-17T22:54:15.008Z,59.58
2023-04-17T22:57:26.218Z,60.45
2023-04-17T23:00:31.750Z,59.17
2023-04-17T23:04:00.791Z,59.10
2023-04-17T23:06:49.037Z,53.58
2023-04-17T23:09:17.104Z,52.08
2023-04-17T23:11:45.266Z,48.83
2023-04-17T23:14:13.585Z,49.08
2023-04-17T23:16:42.103Z,49.28
2023-04-17T23:19:10.124Z,47.72
2023-04-17T23:21:38.532Z,47.58
2023-04-17T23:24:08.145Z,48.28
2023-04-17T23:26:36.230Z,47.05
2023-04-17T23:29:14.530Z,48.25
2023-04-17T23:31:45.896Z,46.90
2023-04-17T23:34:16.229Z,48.25
2023-04-17T23:36:44.518Z,48.70
2023-04-17T23:39:14.013Z,47.78
2023-04-17T23:41:43.186Z,48.03
2023-04-17T23:44:11.672Z,47.83
2023-04-17T23:46:41.824Z,46.90
2023-04-17T23:49:10.111Z,48.90
2023-04-17T23:51:38.212Z,48.22
2023-04-17T23:54:07.956Z,49.42
2023-04-17T23:56:37.887Z,49.70
2023-04-17T23:59:05.941Z,48.65
